Main page
METAR-TAF:

METAR-TAF

Airports :

Memmingen, Germany

latitude: 47-59-33N, longitude: 10-14-37E, elevation: 633 m

Current weather observation

The report was made 7 hours and 6 minutes ago, at 21:20 UTC
Wind 4 kt from the North, varying between North and East/Northeast
Temperature 2°C
Humidity 100%
Pressure 1023 hPa
Visibility: 0400 m
fog

METAR: EDJA 172120Z 01004KT 360V060 0400 R24/0500N FG VV/// 02/02 Q1023

Time: 05:26 (04:26 UTC)

Forecast

The report was made 9 hours and 17 minutes ago, at 19:09 UTC
Forecast valid from 17 at 19 UTC to 18 at 03 UTC
Wind 3 kt from variable directions
Visibility: 2000 m
Overcast at a height of 300 ft
mist
Temporary
from 17 at 19 UTC to 18 at 03 UTC
Visibility: 0500 m
Overcast at a height of 100 ft
fog

TAF: EDJA 171909Z 1719/1803 VRB03KT 2000 BR OVC003 TEMPO 1719/1803 0500 FG OVC001

Weather observations and forecasts of more than 4000 airports (METAR and TAF reports).

The available stations are represented by yellow and red dots on the map.

Hover mouse over dot to see the name of the station.

Then click to see weather observations and forecasts.

To change the map : click on the green buttons with a black cross to zoom in, on the green button with a dash to zoom out, or on the green arrows for adjacent maps.


METAR-TAF: